createdAt,value
2019-04-19T00:02:56.163Z,5.00
2019-04-19T00:08:20.160Z,5.67
2019-04-19T00:13:09.750Z,5.07
2019-04-19T00:18:18.257Z,5.10
2019-04-19T00:23:31.368Z,5.27
2019-04-19T00:28:39.434Z,4.70
2019-04-19T00:33:42.558Z,4.67
2019-04-19T00:38:57.207Z,5.00
2019-04-19T00:44:25.663Z,5.20
2019-04-19T00:49:16.260Z,5.40
2019-04-19T00:54:23.001Z,5.67
2019-04-19T00:59:22.817Z,5.60
2019-04-19T01:04:32.760Z,5.80
2019-04-19T01:09:46.446Z,6.10
2019-04-19T01:14:51.950Z,5.90
2019-04-19T01:19:53.606Z,6.00
2019-04-19T01:24:56.292Z,6.00
2019-04-19T01:30:02.792Z,5.53
2019-04-19T01:35:13.720Z,5.37
2019-04-19T01:40:36.790Z,5.70
2019-04-19T01:46:07.657Z,5.30
2019-04-19T01:51:15.883Z,5.70
2019-04-19T01:56:13.245Z,5.53
2019-04-19T02:01:22.098Z,5.30
2019-04-19T02:06:29.348Z,5.20
2019-04-19T02:11:54.470Z,5.60
2019-04-19T02:16:56.906Z,5.90
2019-04-19T02:22:00.159Z,4.83
2019-04-19T02:27:09.160Z,5.17
2019-04-19T02:32:29.898Z,5.77
2019-04-19T02:37:41.855Z,5.50
2019-04-19T02:42:44.879Z,5.63
2019-04-19T02:47:57.886Z,5.90
2019-04-19T02:53:05.312Z,5.50
2019-04-19T02:58:23.688Z,5.80
2019-04-19T03:03:21.046Z,5.37
2019-04-19T03:08:01.751Z,5.20
2019-04-19T03:13:21.960Z,5.13
2019-04-19T03:18:42.372Z,5.73
2019-04-19T03:23:32.991Z,5.57
2019-04-19T03:28:35.418Z,5.50
2019-04-19T03:34:04.984Z,5.97
2019-04-19T03:38:57.977Z,5.43
2019-04-19T03:44:22.219Z,5.93
2019-04-19T03:49:37.256Z,5.67
2019-04-19T03:54:37.132Z,5.73
2019-04-19T03:59:26.855Z,5.73
2019-04-19T04:04:35.132Z,6.30
2019-04-19T04:10:16.123Z,5.70
2019-04-19T04:15:51.602Z,5.83
2019-04-19T04:20:50.219Z,5.93
2019-04-19T04:25:59.149Z,5.63
2019-04-19T04:31:09.748Z,5.80
2019-04-19T04:36:25.221Z,6.30
2019-04-19T04:41:14.948Z,5.60
2019-04-19T04:47:02.354Z,6.17
2019-04-19T04:52:31.610Z,5.77
2019-04-19T04:57:41.664Z,5.80
2019-04-19T05:02:51.865Z,5.30
2019-04-19T05:08:09.280Z,6.10
2019-04-19T05:23:26.535Z,5.80
2019-04-19T05:28:33.267Z,5.43
2019-04-19T05:33:39.699Z,5.50
2019-04-19T05:39:03.096Z,5.93
2019-04-19T05:44:27.010Z,5.90
2019-04-19T05:49:19.944Z,5.57
2019-04-19T05:54:14.073Z,5.73
2019-04-19T05:59:31.903Z,5.17
2019-04-19T06:04:43.548Z,5.70
2019-04-19T06:09:32.593Z,5.23
2019-04-19T06:15:02.313Z,5.50
2019-04-19T06:20:09.566Z,5.63
2019-04-19T06:25:12.441Z,5.53
2019-04-19T06:30:38.857Z,5.53
2019-04-19T06:35:22.471Z,5.63
2019-04-19T06:40:25.846Z,5.23
2019-04-19T06:45:44.310Z,5.27
2019-04-19T06:50:38.440Z,4.77
2019-04-19T06:55:43.253Z,5.23
2019-04-19T07:00:59.525Z,5.30
2019-04-19T07:06:09.481Z,5.53
2019-04-19T07:11:16.322Z,4.97
2019-04-19T07:16:25.314Z,4.97
2019-04-19T07:21:29.074Z,5.27
2019-04-19T07:26:33.828Z,4.30
2019-04-19T07:31:18.410Z,4.73
2019-04-19T07:41:43.891Z,4.60
2019-04-19T07:47:06.878Z,4.63
2019-04-19T07:52:06.118Z,4.20
2019-04-19T07:57:37.447Z,4.60
2019-04-19T08:02:46.842Z,4.90
2019-04-19T08:12:46.104Z,4.70
2019-04-19T08:17:56.704Z,4.57
2019-04-19T08:28:01.576Z,4.40
2019-04-19T08:32:55.643Z,4.37
2019-04-19T08:38:06.987Z,4.47
2019-04-19T08:43:26.844Z,4.53
2019-04-19T08:48:44.300Z,4.70
2019-04-19T08:53:57.153Z,4.50
2019-04-19T08:59:05.814Z,4.30
2019-04-19T09:04:17.069Z,4.60
2019-04-19T09:09:27.840Z,4.43
2019-04-19T09:14:35.492Z,4.53
2019-04-19T09:20:01.126Z,4.80
2019-04-19T09:24:42.914Z,4.40
2019-04-19T09:29:59.111Z,4.80
2019-04-19T09:34:51.970Z,4.57
2019-04-19T09:40:02.150Z,4.83
2019-04-19T09:45:02.009Z,4.83
2019-04-19T09:50:26.216Z,4.50
2019-04-19T09:55:33.101Z,4.53
2019-04-19T10:00:27.812Z,4.40
2019-04-19T10:05:32.793Z,4.33
2019-04-19T10:10:41.104Z,4.40
2019-04-19T10:16:00.701Z,3.90
2019-04-19T10:21:26.691Z,4.20
2019-04-19T10:26:34.293Z,4.00
2019-04-19T10:32:10.650Z,4.03
2019-04-19T10:37:17.576Z,4.00
2019-04-19T10:42:23.107Z,3.67
2019-04-19T10:47:53.921Z,3.90
2019-04-19T10:53:00.590Z,3.97
2019-04-19T10:58:21.641Z,3.90
2019-04-19T11:03:25.071Z,4.00
2019-04-19T11:08:32.816Z,4.00
2019-04-19T11:13:40.149Z,4.07
2019-04-19T11:18:46.303Z,3.63
2019-04-19T11:23:53.629Z,3.50
2019-04-19T11:29:00.939Z,3.53
2019-04-19T11:34:06.896Z,3.70
2019-04-19T11:39:14.876Z,3.60
2019-04-19T11:44:22.902Z,3.17
2019-04-19T11:49:35.236Z,3.40
2019-04-19T11:54:36.585Z,3.50
2019-04-19T11:59:49.425Z,3.50
2019-04-19T12:04:52.543Z,3.37
2019-04-19T12:09:59.111Z,3.10
2019-04-19T12:15:06.216Z,3.40
2019-04-19T12:20:13.168Z,3.07
2019-04-19T12:25:19.578Z,3.00
2019-04-19T12:30:25.238Z,3.30
2019-04-19T12:35:31.403Z,3.30
2019-04-19T12:40:45.676Z,3.10
2019-04-19T12:45:51.884Z,3.50
2019-04-19T12:50:58.343Z,2.70
2019-04-19T12:56:11.725Z,2.80
2019-04-19T13:01:22.101Z,3.00
2019-04-19T13:07:02.753Z,3.47
2019-04-19T13:12:10.747Z,2.90
2019-04-19T13:17:14.421Z,3.37
2019-04-19T13:22:20.587Z,2.77
2019-04-19T13:27:39.628Z,2.60
2019-04-19T13:32:33.544Z,3.03
2019-04-19T13:38:07.734Z,2.87
2019-04-19T13:43:15.224Z,2.90
2019-04-19T13:48:22.561Z,2.40
2019-04-19T13:53:28.833Z,2.60
2019-04-19T13:58:35.750Z,2.70
2019-04-19T14:03:41.501Z,2.87
2019-04-19T14:08:51.158Z,3.00
2019-04-19T14:14:00.342Z,2.50
2019-04-19T14:19:07.237Z,2.70
2019-04-19T14:24:13.496Z,2.30
2019-04-19T14:29:19.260Z,2.80
2019-04-19T14:34:24.863Z,2.67
2019-04-19T14:39:30.890Z,3.00
2019-04-19T14:44:36.218Z,3.00
2019-04-19T14:49:42.836Z,2.90
2019-04-19T14:54:50.399Z,2.50
2019-04-19T14:59:56.835Z,2.90
2019-04-19T15:05:07.641Z,2.40
2019-04-19T15:10:13.558Z,2.30
2019-04-19T15:15:20.326Z,2.50
2019-04-19T15:25:36.988Z,2.50
2019-04-19T15:30:45.006Z,2.50
2019-04-19T15:35:49.820Z,2.60
2019-04-19T15:40:58.330Z,2.20
2019-04-19T15:46:03.927Z,2.60
2019-04-19T15:51:19.159Z,2.27
2019-04-19T15:56:22.312Z,2.30
2019-04-19T16:01:46.234Z,2.13
2019-04-19T16:07:06.061Z,2.10
2019-04-19T16:12:31.525Z,2.13
2019-04-19T16:17:38.020Z,1.90
2019-04-19T16:22:44.604Z,2.57
2019-04-19T16:27:50.174Z,2.07
2019-04-19T16:32:55.974Z,3.60
2019-04-19T16:38:01.620Z,2.30
2019-04-19T16:43:07.751Z,2.50
2019-04-19T16:48:14.579Z,2.10
2019-04-19T16:53:21.832Z,2.10
2019-04-19T16:58:28.569Z,1.80
2019-04-19T17:03:39.704Z,1.80
2019-04-19T17:08:44.294Z,1.93
2019-04-19T17:13:50.800Z,2.40
2019-04-19T17:19:19.015Z,2.03
2019-04-19T17:24:24.949Z,2.10
2019-04-19T17:29:31.057Z,1.90
2019-04-19T17:34:36.286Z,1.80
2019-04-19T17:39:42.504Z,1.93
2019-04-19T17:44:51.598Z,1.80
2019-04-19T17:49:58.131Z,1.90
2019-04-19T17:55:13.414Z,1.97
2019-04-19T18:00:10.405Z,1.83
2019-04-19T18:05:15.996Z,2.07
2019-04-19T18:10:26.716Z,2.00
2019-04-19T18:15:28.171Z,2.00
2019-04-19T18:20:34.819Z,2.13
2019-04-19T18:25:41.455Z,2.20
2019-04-19T18:30:51.427Z,2.10
2019-04-19T18:36:00.999Z,2.03
2019-04-19T18:40:58.819Z,2.20
2019-04-19T18:46:04.792Z,2.40
2019-04-19T18:51:13.456Z,2.67
2019-04-19T18:56:21.728Z,2.80
2019-04-19T19:01:31.003Z,2.70
2019-04-19T19:06:36.661Z,2.47
2019-04-19T19:11:38.096Z,2.50
2019-04-19T19:16:44.836Z,2.70
2019-04-19T19:21:53.279Z,2.30
2019-04-19T19:27:07.346Z,2.30
2019-04-19T19:32:10.664Z,2.73
2019-04-19T19:37:17.763Z,2.50
2019-04-19T19:42:45.780Z,2.20
2019-04-19T19:48:12.731Z,2.50
2019-04-19T19:53:25.748Z,2.50
2019-04-19T19:58:17.052Z,2.47
2019-04-19T20:03:20.721Z,2.50
2019-04-19T20:08:30.151Z,2.23
2019-04-19T20:13:37.235Z,2.40
2019-04-19T20:18:39.611Z,2.40
2019-04-19T20:23:58.913Z,2.53
2019-04-19T20:28:51.949Z,2.50
2019-04-19T20:34:00.432Z,2.30
2019-04-19T20:39:07.788Z,2.47
2019-04-19T20:44:31.770Z,2.47
2019-04-19T20:49:19.812Z,2.97
2019-04-19T20:54:46.560Z,2.70
2019-04-19T20:59:39.991Z,2.77
2019-04-19T21:04:46.495Z,2.40
2019-04-19T21:09:47.530Z,2.50
2019-04-19T21:14:52.857Z,2.63
2019-04-19T21:19:58.489Z,2.77
2019-04-19T21:25:15.904Z,2.67
2019-04-19T21:30:13.344Z,2.43
2019-04-19T21:35:19.328Z,3.00
2019-04-19T21:40:29.992Z,2.90
2019-04-19T21:45:37.825Z,3.10
2019-04-19T21:50:42.045Z,3.27
2019-04-19T21:55:54.164Z,2.73
2019-04-19T22:01:03.623Z,3.37
2019-04-19T22:06:11.714Z,3.47
2019-04-19T22:11:12.017Z,3.17
2019-04-19T22:16:21.599Z,3.10
2019-04-19T22:21:30.181Z,3.80
2019-04-19T22:26:34.572Z,3.50
2019-04-19T22:31:36.639Z,3.67
2019-04-19T22:36:47.007Z,3.83
2019-04-19T22:41:50.733Z,3.70
2019-04-19T22:46:56.550Z,3.90
2019-04-19T22:52:02.658Z,3.73
2019-04-19T22:57:13.845Z,3.83
2019-04-19T23:02:37.330Z,3.80
2019-04-19T23:07:47.275Z,4.07
2019-04-19T23:12:49.382Z,4.83
2019-04-19T23:17:54.684Z,4.30
2019-04-19T23:23:00.953Z,4.30
2019-04-19T23:28:15.429Z,4.20
2019-04-19T23:33:19.060Z,4.17
2019-04-19T23:38:25.552Z,4.17
2019-04-19T23:43:34.189Z,4.53
2019-04-19T23:48:35.715Z,4.90
2019-04-19T23:53:44.511Z,4.07
2019-04-19T23:58:48.272Z,4.77
